Time;durP1;ratioP1;P1;durP2;ratioP2;P2;SDS_P1;SDS_P2;PMS_P1;PMS_P2;Temp;Humidity;BMP_temperature;BMP_pressure;BME280_temperature;BME280_humidity;BME280_pressure;Samples;Min_cycle;Max_cycle;Signal;HPM_P1;HPM_P2
2021/03/10 00:00:43;;;;;;;49.67;26.05;;;;;;;2.27;100.00;101266.69;4969214;28;20051;-56
2021/03/10 00:03:10;;;;;;;51.08;25.38;;;;;;;2.44;100.00;101262.09;4970214;28;20057;-53
2021/03/10 00:05:37;;;;;;;45.17;20.70;;;;;;;2.65;100.00;101260.72;4963075;28;20047;-57
2021/03/10 00:08:08;;;;;;;43.17;21.63;;;;;;;2.60;100.00;101261.97;4970487;28;20074;-54
2021/03/10 00:10:36;;;;;;;41.45;21.25;;;;;;;2.56;100.00;101258.66;4966423;28;20043;-55
2021/03/10 00:13:03;;;;;;;39.50;20.33;;;;;;;2.59;100.00;101261.09;4968043;28;20332;-53
2021/03/10 00:15:30;;;;;;;41.40;20.42;;;;;;;2.70;100.00;101252.50;4964900;28;20437;-55
2021/03/10 00:17:57;;;;;;;40.47;21.17;;;;;;;2.92;100.00;101259.81;4969349;28;20042;-54
2021/03/10 00:20:24;;;;;;;33.45;17.75;;;;;;;3.04;100.00;101253.72;4966706;28;20050;-55
2021/03/10 00:22:51;;;;;;;35.28;18.23;;;;;;;2.85;100.00;101258.53;4968453;28;20051;-54
2021/03/10 00:25:19;;;;;;;37.67;17.25;;;;;;;2.91;100.00;101256.31;4964355;28;20047;-56
2021/03/10 00:27:46;;;;;;;37.20;18.75;;;;;;;2.95;100.00;101254.34;4966234;28;20051;-54
2021/03/10 00:30:15;;;;;;;38.85;19.33;;;;;;;3.06;100.00;101245.69;4965393;28;20047;-55
2021/03/10 00:32:42;;;;;;;32.42;16.98;;;;;;;2.88;100.00;101260.97;4966923;28;20047;-55
2021/03/10 00:35:28;;;;;;;36.63;17.05;;;;;;;2.66;100.00;101245.72;4962375;28;20137;-54
2021/03/10 00:37:58;;;;;;;37.45;19.08;;;;;;;2.73;100.00;101253.13;4967142;28;20045;-56
2021/03/10 00:40:26;;;;;;;36.40;17.85;;;;;;;2.67;100.00;101252.69;4965177;28;20112;-56
2021/03/10 00:42:53;;;;;;;42.33;17.48;;;;;;;2.81;100.00;101249.97;4966909;28;20050;-55
2021/03/10 00:45:20;;;;;;;41.67;18.27;;;;;;;2.78;100.00;101254.59;4966729;28;20039;-56
2021/03/10 00:47:47;;;;;;;39.47;18.27;;;;;;;2.82;100.00;101262.22;4962104;28;20046;-52
2021/03/10 00:50:16;;;;;;;37.03;17.67;;;;;;;2.67;100.00;101264.06;4968892;28;20447;-55
2021/03/10 00:52:43;;;;;;;35.17;17.13;;;;;;;2.78;100.00;101254.59;4966516;28;20046;-55
2021/03/10 00:55:12;;;;;;;33.28;17.83;;;;;;;2.75;100.00;101261.78;4970370;28;20046;-57
2021/03/10 00:57:39;;;;;;;36.78;17.45;;;;;;;2.85;100.00;101261.16;4964799;28;20069;-55
2021/03/10 01:00:08;;;;;;;49.60;19.35;;;;;;;2.96;100.00;101258.66;4968877;28;20058;-53
2021/03/10 01:02:35;;;;;;;33.92;16.92;;;;;;;3.22;100.00;101270.09;4966460;28;20038;-55
2021/03/10 01:05:02;;;;;;;35.85;14.95;;;;;;;3.19;100.00;101272.09;4968194;28;20359;-54
2021/03/10 01:07:29;;;;;;;41.55;18.40;;;;;;;3.12;100.00;101279.59;4965353;28;20322;-56
2021/03/10 01:09:56;;;;;;;31.88;18.17;;;;;;;3.14;100.00;101282.13;4967084;28;20047;-55
2021/03/10 01:12:23;;;;;;;37.17;19.15;;;;;;;3.32;100.00;101270.31;4964518;28;20046;-53
2021/03/10 01:14:51;;;;;;;36.28;16.42;;;;;;;3.18;100.00;101279.16;4963602;28;20038;-56
2021/03/10 01:17:18;;;;;;;34.80;16.92;;;;;;;3.23;100.00;101287.63;4967253;28;20042;-54
2021/03/10 01:19:45;;;;;;;32.60;16.33;;;;;;;3.23;100.00;101278.84;4966525;28;20121;-55
2021/03/10 01:22:12;;;;;;;45.72;16.67;;;;;;;3.22;100.00;101285.94;4963203;28;20351;-56
2021/03/10 01:24:39;;;;;;;32.35;16.00;;;;;;;3.05;100.00;101281.78;4969357;28;20045;-56
2021/03/10 01:27:07;;;;;;;36.35;16.55;;;;;;;3.10;100.00;101284.97;4965044;28;20058;-56
2021/03/10 01:29:34;;;;;;;31.42;15.60;;;;;;;3.27;100.00;101280.34;4966492;28;20077;-55
2021/03/10 01:32:02;;;;;;;36.75;17.42;;;;;;;3.27;100.00;101277.69;4965417;28;20061;-51
2021/03/10 01:34:29;;;;;;;37.58;18.17;;;;;;;3.05;100.00;101279.16;4964519;28;20344;-56
2021/03/10 01:36:56;;;;;;;34.47;16.40;;;;;;;3.08;100.00;101267.56;4964252;28;20035;-54
2021/03/10 01:39:23;;;;;;;34.45;16.15;;;;;;;3.10;100.00;101271.78;4967580;28;20046;-56
2021/03/10 01:41:50;;;;;;;36.47;16.17;;;;;;;3.23;100.00;101263.00;4965380;28;20053;-56
2021/03/10 01:44:16;;;;;;;45.80;17.75;;;;;;;3.12;100.00;101266.41;4970591;28;20039;-53
2021/03/10 01:46:44;;;;;;;44.28;19.58;;;;;;;3.03;100.00;101270.47;4962533;28;20050;-56
2021/03/10 01:49:12;;;;;;;35.95;16.52;;;;;;;3.07;100.00;101261.41;4967090;28;20431;-56
2021/03/10 01:51:39;;;;;;;46.28;18.52;;;;;;;2.97;100.00;101270.06;4965296;28;20423;-54
2021/03/10 01:54:06;;;;;;;32.80;16.73;;;;;;;2.87;100.00;101267.19;4967474;28;20443;-56
2021/03/10 01:56:34;;;;;;;40.03;18.33;;;;;;;2.86;100.00;101268.97;4963832;28;20351;-56
2021/03/10 01:59:01;;;;;;;46.00;18.95;;;;;;;2.96;100.00;101266.56;4968613;28;20043;-55
2021/03/10 02:01:28;;;;;;;43.85;18.80;;;;;;;2.95;100.00;101264.03;4965889;28;20047;-55
2021/03/10 02:03:55;;;;;;;41.40;19.52;;;;;;;2.92;100.00;101257.16;4968020;28;20443;-56
2021/03/10 02:06:43;;;;;;;38.33;18.67;;;;;;;2.74;100.00;101239.00;4960502;28;20046;-55
2021/03/10 02:09:13;;;;;;;38.50;18.25;;;;;;;2.75;100.00;101245.09;4967504;28;20058;-56
2021/03/10 02:11:41;;;;;;;37.90;18.02;;;;;;;2.78;100.00;101244.91;4965546;28;20046;-57
2021/03/10 02:14:13;;;;;;;42.78;19.63;;;;;;;2.71;100.00;101238.38;4966665;28;20057;-56
2021/03/10 02:16:44;;;;;;;43.53;18.23;;;;;;;2.75;100.00;101237.19;4965503;28;20458;-56
2021/03/10 02:19:22;;;;;;;43.00;19.30;;;;;;;2.74;100.00;101232.88;4965328;28;20129;-55
2021/03/10 02:21:58;;;;;;;39.95;19.75;;;;;;;2.81;100.00;101233.28;4965397;28;20034;-57
2021/03/10 02:24:45;;;;;;;39.20;19.67;;;;;;;2.74;100.00;101233.72;4967389;28;20050;-55
2021/03/10 02:27:44;;;;;;;38.45;21.13;;;;;;;2.62;100.00;101231.03;4963845;28;20074;-53
2021/03/10 02:30:12;;;;;;;38.15;18.23;;;;;;;2.77;100.00;101237.09;4962433;28;20046;-56
2021/03/10 02:32:40;;;;;;;43.03;19.52;;;;;;;2.65;100.00;101239.63;4965587;28;20045;-57
2021/03/10 02:35:09;;;;;;;46.80;21.67;;;;;;;2.72;100.00;101235.63;4964867;28;20043;-55
2021/03/10 02:37:38;;;;;;;47.40;21.48;;;;;;;2.75;100.00;101239.81;4963045;28;20046;-54
2021/03/10 02:40:09;;;;;;;49.22;21.95;;;;;;;2.66;100.00;101238.66;4966006;28;20047;-57
2021/03/10 02:42:37;;;;;;;51.42;22.20;;;;;;;2.74;100.00;101235.50;4962917;28;20054;-54
2021/03/10 02:45:06;;;;;;;47.67;21.70;;;;;;;2.85;100.00;101240.91;4966449;28;20057;-54
2021/03/10 02:47:34;;;;;;;46.85;21.60;;;;;;;2.74;100.00;101233.72;4965322;28;20047;-56
2021/03/10 02:50:01;;;;;;;46.88;20.42;;;;;;;2.71;100.00;101236.56;4967863;28;20066;-53
2021/03/10 02:52:29;;;;;;;45.67;20.15;;;;;;;2.70;100.00;101234.84;4966077;28;20439;-55
2021/03/10 02:54:56;;;;;;;46.30;20.85;;;;;;;2.51;100.00;101226.47;4966691;28;20046;-57
2021/03/10 02:57:23;;;;;;;48.15;22.42;;;;;;;2.37;100.00;101230.88;4963962;28;20039;-53
2021/03/10 02:59:50;;;;;;;46.67;23.92;;;;;;;2.50;100.00;101230.06;4967796;28;20046;-56
2021/03/10 03:02:18;;;;;;;46.97;21.00;;;;;;;2.46;100.00;101229.41;4968874;28;20047;-56
2021/03/10 03:04:45;;;;;;;50.17;22.27;;;;;;;2.27;100.00;101213.97;4971898;28;20043;-56
2021/03/10 03:07:18;;;;;;;45.88;22.02;;;;;;;2.23;100.00;101212.47;4966530;28;20039;-55
2021/03/10 03:09:45;;;;;;;48.10;23.95;;;;;;;2.13;100.00;101208.75;4966534;28;20054;-55
2021/03/10 03:12:14;;;;;;;54.63;24.38;;;;;;;2.05;100.00;101209.22;4969253;28;20049;-55
2021/03/10 03:14:42;;;;;;;55.20;26.35;;;;;;;1.80;100.00;101215.19;4968183;28;20430;-55
2021/03/10 03:17:10;;;;;;;58.40;24.45;;;;;;;1.61;100.00;101211.06;4971689;28;20045;-56
2021/03/10 03:19:38;;;;;;;55.83;25.67;;;;;;;1.64;100.00;101205.63;4970049;28;20364;-56
2021/03/10 03:22:07;;;;;;;55.45;24.33;;;;;;;1.58;100.00;101210.44;4968077;28;20245;-55
2021/03/10 03:24:34;;;;;;;54.67;26.60;;;;;;;1.59;100.00;101201.56;4971566;28;20490;-55
2021/03/10 03:27:02;;;;;;;62.22;27.25;;;;;;;1.52;100.00;101206.41;4965726;28;20042;-53
2021/03/10 03:29:30;;;;;;;60.75;26.67;;;;;;;1.45;100.00;101208.56;4968911;28;20051;-56
2021/03/10 03:31:58;;;;;;;63.22;26.52;;;;;;;1.42;100.00;101202.63;4972077;28;20043;-53
2021/03/10 03:34:26;;;;;;;62.33;27.10;;;;;;;1.44;100.00;101203.38;4970347;28;20050;-55
2021/03/10 03:36:54;;;;;;;56.70;26.35;;;;;;;1.35;100.00;101204.81;4966361;28;20363;-52
2021/03/10 03:39:22;;;;;;;59.63;27.52;;;;;;;1.36;100.00;101195.94;4965044;28;20461;-56
2021/03/10 03:41:50;;;;;;;62.20;28.95;;;;;;;1.37;100.00;101195.00;4970517;28;20039;-55
2021/03/10 03:44:18;;;;;;;56.78;26.85;;;;;;;1.32;100.00;101194.47;4967184;28;20039;-55
2021/03/10 03:46:45;;;;;;;63.63;28.80;;;;;;;1.43;100.00;101189.38;4964850;28;20080;-55
2021/03/10 03:49:14;;;;;;;68.88;28.20;;;;;;;1.39;100.00;101187.88;4967628;28;20043;-54
2021/03/10 03:51:42;;;;;;;69.85;27.38;;;;;;;1.36;100.00;101186.28;4962990;28;20070;-56
2021/03/10 03:54:12;;;;;;;58.00;26.83;;;;;;;1.29;100.00;101181.47;4969926;28;20051;-56
2021/03/10 03:56:39;;;;;;;60.58;27.40;;;;;;;1.27;100.00;101181.56;4963223;28;20059;-54
2021/03/10 03:59:06;;;;;;;67.15;28.05;;;;;;;1.15;100.00;101182.34;4970258;28;20425;-56
2021/03/10 04:01:33;;;;;;;62.53;27.88;;;;;;;1.14;100.00;101185.91;4967438;28;20415;-55
2021/03/10 04:04:00;;;;;;;62.85;27.42;;;;;;;1.09;100.00;101190.59;4964600;28;20118;-54
2021/03/10 04:06:27;;;;;;;59.88;27.70;;;;;;;1.17;100.00;101197.06;4965239;28;20035;-55
2021/03/10 04:08:54;;;;;;;65.18;27.02;;;;;;;1.30;100.00;101196.34;4967679;28;20057;-56
2021/03/10 04:11:22;;;;;;;61.45;27.63;;;;;;;1.48;100.00;101194.38;4968627;28;20061;-55
2021/03/10 04:13:49;;;;;;;57.47;27.15;;;;;;;1.68;100.00;101203.66;4965856;28;20046;-54
2021/03/10 04:16:16;;;;;;;64.07;27.65;;;;;;;1.63;100.00;101209.22;4966634;28;20040;-53
2021/03/10 04:18:44;;;;;;;63.13;26.63;;;;;;;1.65;100.00;101211.75;4968763;28;20098;-55
2021/03/10 04:21:11;;;;;;;61.15;26.67;;;;;;;1.72;100.00;101203.34;4966846;28;20043;-54
2021/03/10 04:23:38;;;;;;;59.05;26.85;;;;;;;1.65;100.00;101207.31;4965632;28;20051;-57
2021/03/10 04:26:04;;;;;;;63.00;26.02;;;;;;;1.58;100.00;101199.91;4966118;28;20050;-56
2021/03/10 04:28:32;;;;;;;58.75;25.75;;;;;;;1.57;100.00;101198.22;4967562;28;20347;-56
2021/03/10 04:30:59;;;;;;;61.55;26.02;;;;;;;1.54;100.00;101199.25;4965159;28;20090;-56
2021/03/10 04:33:26;;;;;;;55.35;24.50;;;;;;;1.49;100.00;101190.78;4965439;28;20042;-55
2021/03/10 04:35:53;;;;;;;62.42;25.42;;;;;;;1.50;100.00;101190.69;4964880;28;20047;-55
2021/03/10 04:38:28;;;;;;;64.55;26.55;;;;;;;1.49;100.00;101188.13;4964914;28;20048;-56
2021/03/10 04:40:55;;;;;;;56.55;25.42;;;;;;;1.46;100.00;101180.44;4969695;28;20047;-56
2021/03/10 04:43:22;;;;;;;56.28;26.25;;;;;;;1.35;100.00;101184.59;4967798;28;20053;-56
2021/03/10 04:45:49;;;;;;;50.42;24.65;;;;;;;1.31;100.00;101177.81;4966437;28;20039;-56
2021/03/10 04:48:17;;;;;;;61.80;26.92;;;;;;;1.26;100.00;101184.31;4967888;28;20055;-56
2021/03/10 04:50:44;;;;;;;58.50;26.83;;;;;;;1.30;100.00;101175.28;4968668;28;20054;-56
2021/03/10 04:53:10;;;;;;;58.10;24.35;;;;;;;1.25;100.00;101177.34;4967992;28;20039;-54
2021/03/10 04:55:37;;;;;;;53.90;25.20;;;;;;;1.23;100.00;101187.13;4964811;28;20462;-54
2021/03/10 04:58:04;;;;;;;53.17;24.60;;;;;;;1.27;100.00;101189.47;4966740;28;20062;-55
2021/03/10 05:00:31;;;;;;;48.78;23.85;;;;;;;1.24;100.00;101176.50;4967514;28;20062;-55
2021/03/10 05:02:59;;;;;;;49.03;23.55;;;;;;;1.31;100.00;101177.81;4965910;28;20343;-56
2021/03/10 05:05:26;;;;;;;60.25;25.45;;;;;;;1.16;100.00;101179.63;4960182;28;20056;-56
2021/03/10 05:07:53;;;;;;;44.15;22.85;;;;;;;1.20;100.00;101177.63;4969049;28;20043;-54
2021/03/10 05:10:21;;;;;;;55.10;23.88;;;;;;;1.16;100.00;101173.50;4965115;28;20347;-55
2021/03/10 05:12:48;;;;;;;53.95;24.08;;;;;;;1.14;100.00;101175.38;4964715;28;20135;-52
2021/03/10 05:15:15;;;;;;;56.70;24.13;;;;;;;1.12;100.00;101171.97;4964181;28;20239;-52
2021/03/10 05:17:42;;;;;;;59.42;26.30;;;;;;;1.22;100.00;101162.59;4965200;28;20050;-55
2021/03/10 05:20:11;;;;;;;64.85;26.75;;;;;;;1.28;100.00;101162.22;4965605;28;20060;-55
2021/03/10 05:22:38;;;;;;;58.25;25.52;;;;;;;1.37;100.00;101159.00;4960622;28;20051;-55
2021/03/10 05:25:08;;;;;;;57.92;27.65;;;;;;;1.41;100.00;101162.31;4967369;28;20047;-55
2021/03/10 05:27:34;;;;;;;51.17;22.40;;;;;;;1.65;100.00;101167.81;4962913;28;20105;-54
2021/03/10 05:30:03;;;;;;;55.15;25.42;;;;;;;1.59;100.00;101176.13;4966168;28;20058;-56
2021/03/10 05:32:30;;;;;;;48.67;23.45;;;;;;;1.67;100.00;101168.59;4969579;28;20050;-56
2021/03/10 05:34:57;;;;;;;57.78;25.15;;;;;;;1.67;100.00;101173.84;4966664;28;20070;-56
2021/03/10 05:37:25;;;;;;;52.97;25.50;;;;;;;1.69;100.00;101166.69;4962109;28;20039;-54
2021/03/10 05:39:52;;;;;;;57.50;25.35;;;;;;;1.65;100.00;101170.44;4965676;28;20053;-55
2021/03/10 05:42:19;;;;;;;47.40;23.30;;;;;;;1.70;100.00;101168.38;4967329;28;20051;-54
2021/03/10 05:44:49;;;;;;;60.00;25.13;;;;;;;1.70;100.00;101176.28;4967207;28;20331;-53
2021/03/10 05:47:16;;;;;;;53.85;23.90;;;;;;;1.65;100.00;101175.72;4964092;28;21555;-56
2021/03/10 05:49:43;;;;;;;55.35;25.13;;;;;;;1.70;100.00;101170.16;4964913;28;20058;-55
2021/03/10 05:52:12;;;;;;;55.60;26.33;;;;;;;1.83;100.00;101167.59;4965588;28;20045;-54
2021/03/10 05:54:42;;;;;;;54.53;23.15;;;;;;;1.85;100.00;101170.97;4964782;28;20050;-55
2021/03/10 05:57:09;;;;;;;53.92;23.88;;;;;;;1.80;100.00;101173.06;4962167;28;20042;-56
2021/03/10 05:59:36;;;;;;;51.35;23.80;;;;;;;1.75;100.00;101165.47;4969896;28;20532;-56
2021/03/10 06:02:04;;;;;;;46.97;23.15;;;;;;;1.82;100.00;101165.91;4967710;28;20054;-55
2021/03/10 06:04:41;;;;;;;50.55;23.13;;;;;;;1.83;100.00;101165.81;4965689;28;20054;-56
2021/03/10 06:07:18;;;;;;;49.15;23.17;;;;;;;1.90;100.00;101155.75;4962680;28;20053;-54
2021/03/10 06:09:59;;;;;;;47.50;23.75;;;;;;;1.92;100.00;101148.56;4960657;28;20065;-54
2021/03/10 06:12:36;;;;;;;54.72;25.75;;;;;;;1.96;100.00;101143.97;4963018;28;20042;-55
2021/03/10 06:15:05;;;;;;;51.22;23.05;;;;;;;1.88;100.00;101147.06;4962361;28;20126;-55
2021/03/10 06:17:43;;;;;;;49.38;23.92;;;;;;;1.92;100.00;101145.09;4957720;28;20221;-55
2021/03/10 06:20:23;;;;;;;47.60;22.63;;;;;;;1.88;100.00;101144.44;4963279;28;20295;-55
2021/03/10 06:22:50;;;;;;;47.00;23.45;;;;;;;1.93;100.00;101147.63;4961764;28;20084;-55
2021/03/10 06:25:18;;;;;;;50.55;22.05;;;;;;;1.81;100.00;101143.97;4962101;28;20043;-54
2021/03/10 06:27:55;;;;;;;49.63;21.48;;;;;;;1.87;100.00;101150.66;4964318;28;20198;-55
2021/03/10 06:30:33;;;;;;;54.90;21.60;;;;;;;1.90;100.00;101147.84;4964339;28;20123;-54
2021/03/10 06:33:01;;;;;;;40.20;20.85;;;;;;;2.05;100.00;101146.81;4965370;28;20322;-56
2021/03/10 06:35:29;;;;;;;42.78;19.83;;;;;;;2.05;100.00;101141.56;4962082;28;20098;-54
2021/03/10 06:38:09;;;;;;;46.78;21.50;;;;;;;2.05;100.00;101146.81;4962818;28;20053;-56
2021/03/10 06:40:48;;;;;;;45.28;19.73;;;;;;;2.06;100.00;101148.53;4965537;28;20046;-56
2021/03/10 06:43:15;;;;;;;41.05;20.10;;;;;;;2.05;100.00;101140.72;4965406;28;20050;-58
2021/03/10 06:45:42;;;;;;;42.88;20.98;;;;;;;2.11;100.00;101144.75;4964135;28;20054;-56
2021/03/10 06:48:22;;;;;;;37.83;19.15;;;;;;;2.10;100.00;101143.03;4962797;28;20056;-53
2021/03/10 06:50:50;;;;;;;39.08;20.60;;;;;;;2.32;100.00;101131.94;4961423;28;20391;-52
2021/03/10 06:53:17;;;;;;;39.03;19.33;;;;;;;2.30;100.00;101133.84;4965396;28;20043;-58
2021/03/10 06:55:45;;;;;;;49.80;21.77;;;;;;;2.35;100.00;101137.88;4963427;28;20520;-56
2021/03/10 06:58:22;;;;;;;39.58;19.50;;;;;;;2.38;100.00;101135.03;4966637;28;20406;-55
2021/03/10 07:01:00;;;;;;;38.25;18.08;;;;;;;2.45;100.00;101131.97;4965005;28;20050;-57
2021/03/10 07:03:27;;;;;;;38.25;18.42;;;;;;;2.58;100.00;101130.22;4964928;28;20035;-57
2021/03/10 07:05:55;;;;;;;34.00;17.70;;;;;;;2.66;100.00;101138.44;4963504;28;20042;-56
2021/03/10 07:08:22;;;;;;;35.85;16.35;;;;;;;2.62;100.00;101139.59;4967116;28;20038;-56
2021/03/10 07:10:49;;;;;;;38.72;18.05;;;;;;;2.64;100.00;101137.69;4963504;28;20054;-56
2021/03/10 07:13:17;;;;;;;37.47;17.13;;;;;;;2.74;100.00;101133.47;4959575;28;20066;-56
2021/03/10 07:15:44;;;;;;;29.25;15.95;;;;;;;2.98;100.00;101135.41;4965121;28;20837;-54
2021/03/10 07:18:13;;;;;;;28.15;14.95;;;;;;;2.82;100.00;101137.38;4962766;28;20055;-57
2021/03/10 07:20:43;;;;;;;29.92;16.08;;;;;;;2.92;100.00;101135.81;4965860;28;20130;-57
2021/03/10 07:23:11;;;;;;;32.95;14.65;;;;;;;2.87;100.00;101135.28;4962054;28;20453;-57
2021/03/10 07:25:43;;;;;;;32.72;15.95;;;;;;;2.87;100.00;101133.47;4960217;28;20039;-56
2021/03/10 07:28:14;;;;;;;32.35;14.80;;;;;;;3.02;100.00;101128.97;4963327;28;20098;-55
2021/03/10 07:30:44;;;;;;;29.00;15.50;;;;;;;2.86;100.00;101138.88;4960645;28;20049;-55
2021/03/10 07:33:12;;;;;;;30.65;15.18;;;;;;;2.90;100.00;101138.53;4961327;28;20042;-54
2021/03/10 07:35:49;;;;;;;35.28;16.38;;;;;;;2.98;100.00;101130.13;4961576;28;20368;-54
2021/03/10 07:38:17;;;;;;;33.53;13.40;;;;;;;3.16;100.00;101138.56;4961524;28;20367;-55
2021/03/10 07:40:57;;;;;;;27.88;14.57;;;;;;;3.05;100.00;101128.75;4964806;28;20069;-56
2021/03/10 07:43:38;;;;;;;25.40;13.30;;;;;;;3.14;100.00;101134.34;4964613;28;20548;-57
2021/03/10 07:46:17;;;;;;;29.77;13.93;;;;;;;3.18;100.00;101123.44;4960757;28;20109;-57
2021/03/10 07:48:44;;;;;;;25.98;14.25;;;;;;;3.35;100.00;101122.25;4967232;28;20511;-55
2021/03/10 07:51:23;;;;;;;24.23;12.70;;;;;;;3.43;100.00;101135.75;4965296;28;20068;-55
2021/03/10 07:53:49;;;;;;;27.33;14.27;;;;;;;3.41;100.00;101127.09;4971947;28;20518;-57
2021/03/10 07:56:24;;;;;;;22.88;12.00;;;;;;;3.40;100.00;101122.78;4963980;28;20465;-56
2021/03/10 07:58:51;;;;;;;24.35;13.13;;;;;;;3.68;100.00;101118.16;4963773;28;20065;-57
2021/03/10 08:01:19;;;;;;;20.98;11.30;;;;;;;3.65;100.00;101122.81;4952354;28;20124;-57
2021/03/10 08:03:46;;;;;;;22.40;12.07;;;;;;;3.78;100.00;101119.19;4966169;28;20086;-56
2021/03/10 08:06:14;;;;;;;25.50;12.80;;;;;;;3.76;100.00;101114.97;4961736;28;20047;-55
2021/03/10 08:08:42;;;;;;;23.30;12.32;;;;;;;3.93;100.00;101116.38;4968978;28;20042;-56
2021/03/10 08:11:14;;;;;;;19.42;11.18;;;;;;;3.96;100.00;101105.56;4969318;28;20039;-55
2021/03/10 08:13:42;;;;;;;18.17;10.27;;;;;;;3.93;100.00;101108.44;4965831;28;20043;-53
2021/03/10 08:16:11;;;;;;;23.23;12.85;;;;;;;4.05;100.00;101110.16;4965337;28;20038;-56
2021/03/10 08:18:45;;;;;;;23.77;11.32;;;;;;;4.25;100.00;101105.19;4966433;28;20047;-57
2021/03/10 08:21:15;;;;;;;24.33;10.18;;;;;;;4.28;100.00;101107.63;4965718;28;20073;-57
2021/03/10 08:23:42;;;;;;;18.20;10.27;;;;;;;4.48;100.00;101098.19;4968213;28;20062;-55
2021/03/10 08:26:09;;;;;;;18.00;10.73;;;;;;;4.30;100.00;101095.13;4963135;28;20058;-57
2021/03/10 08:28:37;;;;;;;17.02;9.70;;;;;;;4.62;100.00;101092.69;4967340;28;20073;-55
2021/03/10 08:31:06;;;;;;;20.38;11.35;;;;;;;4.65;100.00;101088.97;4968177;28;20373;-56
2021/03/10 08:33:45;;;;;;;19.90;10.95;;;;;;;4.89;100.00;101094.19;4966889;28;20324;-57
2021/03/10 08:36:13;;;;;;;21.80;9.85;;;;;;;4.83;100.00;101090.19;4962040;28;20046;-57
2021/03/10 08:38:40;;;;;;;20.55;10.30;;;;;;;4.91;100.00;101094.06;4966713;28;20054;-57
2021/03/10 08:41:09;;;;;;;17.42;9.55;;;;;;;5.18;100.00;101086.56;4965940;28;20529;-57
2021/03/10 08:43:37;;;;;;;20.92;10.32;;;;;;;5.33;100.00;101088.97;4966566;28;20585;-57
2021/03/10 08:46:04;;;;;;;18.45;10.25;;;;;;;5.50;100.00;101088.47;4966451;28;20621;-58
2021/03/10 08:48:33;;;;;;;18.02;8.68;;;;;;;5.81;100.00;101090.44;4964268;28;20443;-58
2021/03/10 08:51:02;;;;;;;17.33;9.65;;;;;;;5.94;100.00;101088.47;4966482;28;20066;-54
2021/03/10 08:53:29;;;;;;;16.40;10.05;;;;;;;6.23;100.00;101082.59;4963930;28;20046;-54
2021/03/10 08:56:04;;;;;;;17.77;9.02;;;;;;;5.93;100.00;101088.59;4963380;28;20042;-55
2021/03/10 08:58:31;;;;;;;12.48;8.38;;;;;;;6.06;100.00;101089.28;4967235;28;20038;-55
2021/03/10 09:01:01;;;;;;;15.07;7.95;;;;;;;6.32;100.00;101078.31;4963407;28;20035;-58
2021/03/10 09:03:28;;;;;;;15.35;9.57;;;;;;;6.06;100.00;101078.69;4968382;28;20038;-55
2021/03/10 09:06:01;;;;;;;16.63;9.50;;;;;;;6.41;100.00;101080.22;4964149;28;20051;-55
2021/03/10 09:08:28;;;;;;;15.43;8.40;;;;;;;6.25;100.00;101079.81;4964214;28;20039;-56
2021/03/10 09:10:57;;;;;;;17.98;8.80;;;;;;;6.35;100.00;101073.59;4963608;28;20042;-56
2021/03/10 09:13:24;;;;;;;15.77;8.55;;;;;;;6.42;100.00;101070.44;4966960;28;20050;-54
2021/03/10 09:15:51;;;;;;;16.27;9.60;;;;;;;6.70;100.00;101076.88;4960534;28;20043;-55
2021/03/10 09:18:32;;;;;;;16.67;8.15;;;;;;;6.75;100.00;101061.41;4960987;28;20110;-56
2021/03/10 09:20:59;;;;;;;15.85;8.38;;;;;;;7.09;100.00;101057.63;4965706;28;20038;-55
2021/03/10 09:23:27;;;;;;;15.35;8.45;;;;;;;7.09;100.00;101047.84;4966535;28;20047;-58
2021/03/10 09:25:56;;;;;;;17.73;9.25;;;;;;;7.02;100.00;101054.69;4964896;28;20053;-58
2021/03/10 09:28:23;;;;;;;15.10;7.85;;;;;;;7.44;100.00;101054.50;4964817;28;20475;-56
2021/03/10 09:30:51;;;;;;;16.20;9.27;;;;;;;7.21;100.00;101045.94;4964965;28;20050;-55
2021/03/10 09:33:20;;;;;;;13.75;7.28;;;;;;;7.67;100.00;101036.50;4963263;28;20039;-55
2021/03/10 09:35:52;;;;;;;17.55;9.45;;;;;;;7.62;100.00;101040.56;4962157;28;20050;-54
2021/03/10 09:38:19;;;;;;;13.80;8.02;;;;;;;8.64;100.00;101042.72;4966387;28;20112;-56
2021/03/10 09:40:51;;;;;;;16.33;8.50;;;;;;;8.87;100.00;101032.53;4965149;28;20039;-56
2021/03/10 09:43:20;;;;;;;16.77;8.00;;;;;;;8.89;100.00;101029.75;4964385;28;20125;-56
2021/03/10 09:45:49;;;;;;;13.50;8.10;;;;;;;8.51;100.00;101023.56;4965568;28;20047;-56
2021/03/10 09:48:29;;;;;;;11.13;7.25;;;;;;;8.47;100.00;101020.34;4963661;28;20066;-56
2021/03/10 09:51:02;;;;;;;15.07;7.68;;;;;;;8.79;100.00;101019.13;4962762;28;20339;-57
2021/03/10 09:53:29;;;;;;;16.08;8.02;;;;;;;8.53;100.00;101010.94;4965057;28;20058;-57
2021/03/10 09:56:06;;;;;;;18.20;9.82;;;;;;;8.63;100.00;101009.09;4962144;28;20051;-57
2021/03/10 09:58:32;;;;;;;13.40;8.20;;;;;;;8.60;100.00;100998.72;4965845;28;20049;-57
2021/03/10 10:01:00;;;;;;;20.23;12.00;;;;;;;8.46;100.00;101008.03;4966644;28;20446;-56
2021/03/10 10:03:34;;;;;;;;;;;;;;;8.48;100.00;101000.75;4963936;28;20050;-55
2021/03/10 10:06:06;;;;;;;18.40;10.63;;;;;;;8.68;100.00;101006.00;4961683;28;20222;-56
2021/03/10 10:08:35;;;;;;;17.15;9.65;;;;;;;8.64;100.00;101015.28;4966704;28;20938;-57
2021/03/10 10:11:02;;;;;;;22.67;11.18;;;;;;;8.50;100.00;101014.72;4963703;28;20043;-55
2021/03/10 10:13:43;;;;;;;21.00;10.65;;;;;;;8.43;100.00;101014.47;4966214;28;20303;-56
2021/03/10 10:16:11;;;;;;;23.00;10.65;;;;;;;8.64;100.00;101010.78;4961340;28;20043;-56
2021/03/10 10:18:39;;;;;;;19.38;10.80;;;;;;;8.50;100.00;100992.63;4965957;28;20045;-58
2021/03/10 10:21:06;;;;;;;18.63;10.25;;;;;;;8.67;100.00;100996.34;4966666;28;20405;-57
2021/03/10 10:23:33;;;;;;;21.00;9.80;;;;;;;8.81;100.00;101006.50;4965737;28;20254;-57
2021/03/10 10:26:01;;;;;;;17.08;9.70;;;;;;;9.54;100.00;101000.34;4961989;28;20370;-56
2021/03/10 10:28:28;;;;;;;19.75;10.57;;;;;;;9.58;100.00;101004.38;4961498;28;20043;-56
2021/03/10 10:30:57;;;;;;;21.90;10.02;;;;;;;9.64;100.00;101003.75;4966736;28;20058;-57
2021/03/10 10:33:26;;;;;;;19.38;10.35;;;;;;;9.42;100.00;100998.88;4966346;28;20062;-54
2021/03/10 10:35:53;;;;;;;17.27;9.63;;;;;;;9.51;100.00;100984.63;4961088;28;20856;-57
2021/03/10 10:38:20;;;;;;;19.75;10.32;;;;;;;9.15;100.00;100981.94;4966709;28;20042;-57
2021/03/10 10:40:47;;;;;;;19.13;10.70;;;;;;;9.23;100.00;100978.53;4962208;28;20136;-58
2021/03/10 10:43:14;;;;;;;19.70;10.55;;;;;;;9.44;100.00;100980.88;4945239;28;20465;-58
2021/03/10 10:45:41;;;;;;;21.33;12.60;;;;;;;9.40;100.00;100971.50;4953083;28;20054;-58
2021/03/10 10:48:10;;;;;;;19.38;10.98;;;;;;;9.57;100.00;100973.38;4965770;28;20066;-58
2021/03/10 10:50:36;;;;;;;21.13;11.77;;;;;;;9.69;100.00;100962.47;4965705;28;20039;-57
2021/03/10 10:53:04;;;;;;;21.90;11.52;;;;;;;10.00;100.00;100961.03;4964404;28;20046;-58
2021/03/10 10:55:32;;;;;;;24.50;12.18;;;;;;;10.49;100.00;100955.19;4963768;28;20063;-59
2021/03/10 10:57:59;;;;;;;22.33;11.77;;;;;;;10.60;100.00;100951.41;4962887;28;20090;-58
2021/03/10 11:00:27;;;;;;;25.40;12.80;;;;;;;10.43;100.00;100939.81;4962755;28;20043;-58
2021/03/10 11:02:55;;;;;;;21.73;11.88;;;;;;;10.68;100.00;100942.59;4966026;28;20139;-58
2021/03/10 11:05:23;;;;;;;23.70;12.48;;;;;;;10.87;100.00;100930.78;4965443;28;20051;-56
2021/03/10 11:07:50;;;;;;;21.67;12.70;;;;;;;10.95;100.00;100917.47;4960578;28;20073;-58
2021/03/10 11:10:18;;;;;;;23.63;12.70;;;;;;;10.76;100.00;100918.59;4962959;28;20070;-57
2021/03/10 11:12:45;;;;;;;21.77;12.20;;;;;;;10.85;100.00;100912.25;4967240;28;20055;-58
2021/03/10 11:15:12;;;;;;;24.27;13.82;;;;;;;10.56;100.00;100927.84;4966074;28;20125;-57
2021/03/10 11:17:39;;;;;;;22.95;12.70;;;;;;;9.90;100.00;100888.28;4961983;28;20058;-58